createdAt,value
2019-02-28T00:00:58.729Z,18.15
2019-02-28T00:03:26.164Z,15.15
2019-02-28T00:05:53.201Z,19.37
2019-02-28T00:08:19.687Z,19.40
2019-02-28T00:10:46.136Z,19.00
2019-02-28T00:13:12.431Z,16.95
2019-02-28T00:15:38.704Z,18.07
2019-02-28T00:18:05.082Z,16.97
2019-02-28T00:20:31.970Z,16.93
2019-02-28T00:22:59.037Z,16.40
2019-02-28T00:25:25.395Z,16.23
2019-02-28T00:27:52.684Z,17.48
2019-02-28T00:30:19.816Z,15.65
2019-02-28T00:32:46.064Z,19.05
2019-02-28T00:35:13.466Z,18.62
2019-02-28T00:37:40.454Z,16.97
2019-02-28T00:40:08.449Z,14.68
2019-02-28T00:42:34.731Z,17.95
2019-02-28T00:45:02.182Z,21.45
2019-02-28T00:47:29.072Z,16.60
2019-02-28T00:49:56.504Z,19.32
2019-02-28T00:52:23.003Z,15.93
2019-02-28T00:54:49.278Z,17.70
2019-02-28T00:57:15.529Z,13.93
2019-02-28T00:59:41.934Z,16.65
2019-02-28T01:02:08.292Z,19.50
2019-02-28T01:04:34.556Z,17.02
2019-02-28T01:07:00.927Z,18.15
2019-02-28T01:09:30.061Z,18.90
2019-02-28T01:11:55.420Z,16.70
2019-02-28T01:14:21.692Z,17.25
2019-02-28T01:16:50.174Z,18.05
2019-02-28T01:19:16.153Z,16.42
2019-02-28T01:21:42.510Z,18.73
2019-02-28T01:24:09.003Z,19.23
2019-02-28T01:26:35.294Z,13.00
2019-02-28T01:29:02.706Z,17.87
2019-02-28T01:31:29.035Z,16.50
2019-02-28T01:33:56.035Z,21.17
2019-02-28T01:36:23.514Z,14.90
2019-02-28T01:38:49.766Z,16.25
2019-02-28T01:41:16.054Z,17.42
2019-02-28T01:43:42.293Z,14.80
2019-02-28T01:46:08.775Z,19.73
2019-02-28T01:48:35.104Z,16.55
2019-02-28T01:51:01.746Z,17.45
2019-02-28T01:53:28.078Z,16.25
2019-02-28T01:55:54.439Z,19.62
2019-02-28T01:58:20.800Z,21.50
2019-02-28T02:00:47.096Z,16.12
2019-02-28T02:03:13.360Z,16.27
2019-02-28T02:05:39.911Z,16.40
2019-02-28T02:08:07.279Z,17.20
2019-02-28T02:10:33.691Z,21.48
2019-02-28T02:13:03.207Z,17.30
2019-02-28T02:15:28.078Z,17.30
2019-02-28T02:17:54.393Z,17.45
2019-02-28T02:20:23.469Z,16.52
2019-02-28T02:22:49.226Z,17.10
2019-02-28T02:25:16.016Z,16.12
2019-02-28T02:27:42.357Z,15.93
2019-02-28T02:30:15.201Z,18.67
2019-02-28T02:32:40.449Z,16.40
2019-02-28T02:35:08.390Z,18.30
2019-02-28T02:37:34.904Z,19.85
2019-02-28T02:40:01.273Z,17.32
2019-02-28T02:42:27.636Z,15.60
2019-02-28T02:44:53.927Z,17.50
2019-02-28T02:47:20.196Z,17.65
2019-02-28T02:49:46.450Z,19.17
2019-02-28T02:52:12.737Z,18.30
2019-02-28T02:54:39.011Z,15.38
2019-02-28T02:57:05.295Z,19.12
2019-02-28T02:59:37.564Z,18.62
2019-02-28T03:01:59.832Z,13.25
2019-02-28T03:04:26.089Z,17.45
2019-02-28T03:06:52.405Z,16.30
2019-02-28T03:09:18.720Z,17.02
2019-02-28T03:11:45.191Z,17.48
2019-02-28T03:14:16.178Z,16.27
2019-02-28T03:16:39.722Z,17.20
2019-02-28T03:19:06.221Z,16.20
2019-02-28T03:21:32.481Z,15.58
2019-02-28T03:23:58.792Z,22.48
2019-02-28T03:26:25.081Z,22.07
2019-02-28T03:28:51.351Z,18.15
2019-02-28T03:31:17.615Z,17.85
2019-02-28T03:33:43.966Z,18.40
2019-02-28T03:36:10.245Z,17.25
2019-02-28T03:38:37.409Z,19.77
2019-02-28T03:41:03.764Z,18.62
2019-02-28T03:43:30.119Z,17.55
2019-02-28T03:45:56.382Z,14.35
2019-02-28T03:48:22.637Z,18.55
2019-02-28T03:50:48.946Z,15.88
2019-02-28T03:53:19.653Z,19.67
2019-02-28T03:55:43.486Z,17.15
2019-02-28T03:58:09.975Z,17.20
2019-02-28T04:00:36.239Z,16.25
2019-02-28T04:03:02.708Z,16.97
2019-02-28T04:05:29.196Z,19.00
2019-02-28T04:07:55.571Z,20.95
2019-02-28T04:10:22.609Z,17.77
2019-02-28T04:12:49.016Z,17.65
2019-02-28T04:15:16.827Z,16.97
2019-02-28T04:17:43.096Z,14.87
2019-02-28T04:20:09.656Z,15.05
2019-02-28T04:22:36.003Z,13.58
2019-02-28T04:25:03.858Z,18.42
2019-02-28T04:27:30.159Z,17.23
2019-02-28T04:29:56.455Z,16.00
2019-02-28T04:32:26.636Z,14.23
2019-02-28T04:34:50.905Z,16.05
2019-02-28T04:37:17.164Z,16.23
2019-02-28T04:39:43.424Z,17.07
2019-02-28T04:42:10.023Z,15.58
2019-02-28T04:44:36.272Z,13.30
2019-02-28T04:47:06.844Z,17.32
2019-02-28T04:49:31.708Z,18.20
2019-02-28T04:51:58.000Z,13.62
2019-02-28T04:54:24.505Z,19.02
2019-02-28T04:56:52.358Z,16.95
2019-02-28T04:59:18.598Z,16.80
2019-02-28T05:01:46.165Z,16.75
2019-02-28T05:04:12.883Z,17.35
2019-02-28T05:06:39.311Z,18.90
2019-02-28T05:09:05.936Z,17.57
2019-02-28T05:11:33.655Z,19.82
2019-02-28T05:14:00.380Z,17.00
2019-02-28T05:16:26.707Z,19.45
2019-02-28T05:18:52.966Z,15.93
2019-02-28T05:21:19.657Z,17.48
2019-02-28T05:23:46.631Z,15.63
2019-02-28T05:26:13.087Z,16.15
2019-02-28T05:28:41.133Z,15.55
2019-02-28T05:31:07.549Z,14.45
2019-02-28T05:33:34.185Z,16.25
2019-02-28T05:36:04.037Z,16.25
2019-02-28T05:38:28.869Z,16.27
2019-02-28T05:40:55.568Z,16.97
2019-02-28T05:43:21.979Z,17.85
2019-02-28T05:45:49.811Z,17.55
2019-02-28T05:48:16.214Z,17.80
2019-02-28T05:50:42.555Z,17.15
2019-02-28T05:53:09.275Z,21.35
2019-02-28T05:55:36.520Z,18.45
2019-02-28T05:58:02.927Z,20.57
2019-02-28T06:00:29.172Z,22.42
2019-02-28T06:02:58.095Z,19.00
2019-02-28T06:05:23.552Z,17.15
2019-02-28T06:07:49.827Z,16.25
2019-02-28T06:10:16.164Z,18.17
2019-02-28T06:12:43.891Z,17.60
2019-02-28T06:15:13.068Z,15.08
2019-02-28T06:17:39.666Z,15.50
2019-02-28T06:20:10.218Z,15.70
2019-02-28T06:22:36.630Z,19.77
2019-02-28T06:25:05.534Z,17.20
2019-02-28T06:27:40.860Z,14.43
2019-02-28T06:30:00.170Z,17.05
2019-02-28T06:32:27.485Z,18.50
2019-02-28T06:34:53.884Z,18.23
2019-02-28T06:37:20.192Z,15.75
2019-02-28T06:39:46.669Z,16.85
2019-02-28T06:42:12.978Z,18.50
2019-02-28T06:44:39.245Z,19.67
2019-02-28T06:47:05.651Z,20.35
2019-02-28T06:49:31.987Z,21.25
2019-02-28T06:51:58.335Z,17.35
2019-02-28T06:54:24.711Z,17.12
2019-02-28T06:56:54.079Z,20.95
2019-02-28T06:59:19.409Z,16.35
2019-02-28T07:01:45.804Z,18.87
2019-02-28T07:04:14.561Z,19.85
2019-02-28T07:06:40.350Z,20.30
2019-02-28T07:09:06.716Z,21.35
2019-02-28T07:11:34.025Z,24.32
2019-02-28T07:14:00.297Z,24.87
2019-02-28T07:16:26.588Z,18.98
2019-02-28T07:18:53.800Z,17.65
2019-02-28T07:21:20.276Z,18.05
2019-02-28T07:23:46.645Z,19.55
2019-02-28T07:26:13.042Z,19.82
2019-02-28T07:28:39.308Z,15.58
2019-02-28T07:31:05.801Z,19.55
2019-02-28T07:33:32.160Z,22.27
2019-02-28T07:35:58.462Z,24.02
2019-02-28T07:38:25.657Z,27.60
2019-02-28T07:40:52.815Z,21.50
2019-02-28T07:43:19.099Z,22.73
2019-02-28T07:45:45.377Z,22.20
2019-02-28T07:48:11.753Z,17.70
2019-02-28T07:50:38.213Z,22.48
2019-02-28T07:53:08.849Z,20.37
2019-02-28T07:55:33.769Z,19.92
2019-02-28T07:58:00.047Z,26.93
2019-02-28T08:00:26.421Z,21.02
2019-02-28T08:02:52.715Z,20.88
2019-02-28T08:05:18.968Z,23.35
2019-02-28T08:07:50.477Z,19.87
2019-02-28T08:10:25.666Z,24.40
2019-02-28T08:12:52.023Z,19.75
2019-02-28T08:15:29.522Z,23.47
2019-02-28T08:17:55.781Z,24.87
2019-02-28T08:20:22.280Z,25.17
2019-02-28T08:22:48.977Z,19.87
2019-02-28T08:25:15.367Z,22.77
2019-02-28T08:27:41.976Z,22.87
2019-02-28T08:30:16.271Z,25.57
2019-02-28T08:32:44.009Z,24.60
2019-02-28T08:35:12.701Z,21.85
2019-02-28T08:37:39.189Z,18.55
2019-02-28T08:40:09.266Z,20.72
2019-02-28T08:42:38.436Z,17.73
2019-02-28T08:45:07.426Z,22.95
2019-02-28T08:47:33.686Z,18.87
2019-02-28T08:49:59.962Z,20.25
2019-02-28T08:52:26.314Z,22.05
2019-02-28T08:54:52.732Z,24.85
2019-02-28T08:57:21.905Z,24.40
2019-02-28T08:59:47.297Z,19.15
2019-02-28T09:02:17.797Z,23.80
2019-02-28T09:04:44.893Z,20.95
2019-02-28T09:07:14.846Z,20.40
2019-02-28T09:09:38.028Z,18.65
2019-02-28T09:12:04.487Z,22.62
2019-02-28T09:14:30.782Z,18.15
2019-02-28T09:16:57.052Z,22.22
2019-02-28T09:19:23.317Z,21.23
2019-02-28T09:21:52.762Z,21.75
2019-02-28T09:24:17.686Z,19.90
2019-02-28T09:26:43.934Z,20.62
2019-02-28T09:29:10.184Z,23.25
2019-02-28T09:31:39.004Z,18.70
2019-02-28T09:34:04.737Z,26.93
2019-02-28T09:36:31.016Z,18.27
2019-02-28T09:38:59.063Z,21.17
2019-02-28T09:41:25.446Z,29.65
2019-02-28T09:43:51.728Z,27.48
2019-02-28T09:46:18.791Z,22.73
2019-02-28T09:48:45.271Z,22.50
2019-02-28T09:51:11.546Z,24.65
2019-02-28T09:53:37.809Z,21.02
2019-02-28T09:56:08.928Z,21.17
2019-02-28T09:58:32.272Z,28.38
2019-02-28T10:00:58.729Z,22.70
2019-02-28T10:03:25.111Z,21.62
2019-02-28T10:05:51.370Z,25.00
2019-02-28T10:08:17.761Z,21.35
2019-02-28T10:10:44.155Z,23.35
2019-02-28T10:13:10.423Z,23.22
2019-02-28T10:15:38.663Z,25.37
2019-02-28T10:18:05.336Z,22.52
2019-02-28T10:20:34.680Z,29.95
2019-02-28T10:23:01.038Z,25.97
2019-02-28T10:25:27.389Z,20.10
2019-02-28T10:27:54.645Z,20.27
2019-02-28T10:30:31.206Z,25.45
2019-02-28T10:32:51.237Z,23.62
2019-02-28T10:35:18.522Z,23.05
2019-02-28T10:37:44.985Z,23.65
2019-02-28T10:40:17.856Z,23.77
2019-02-28T10:42:42.743Z,25.35
2019-02-28T10:45:11.413Z,21.42
2019-02-28T10:47:37.771Z,23.45
2019-02-28T10:50:07.855Z,23.60
2019-02-28T10:52:34.266Z,26.07
2019-02-28T10:55:00.639Z,28.77
2019-02-28T10:57:27.004Z,20.80
2019-02-28T10:59:55.148Z,25.92
2019-02-28T11:02:21.648Z,22.98
2019-02-28T11:04:48.116Z,20.85
2019-02-28T11:07:14.596Z,25.35
2019-02-28T11:09:40.988Z,26.00
2019-02-28T11:12:07.451Z,19.90
2019-02-28T11:14:35.538Z,26.47
2019-02-28T11:17:02.092Z,28.85
2019-02-28T11:19:28.495Z,22.20
2019-02-28T11:21:54.753Z,27.93
2019-02-28T11:24:23.697Z,22.93
2019-02-28T11:26:49.297Z,21.93
2019-02-28T11:29:15.764Z,22.47
2019-02-28T11:31:42.044Z,27.47
2019-02-28T11:34:11.565Z,20.90
2019-02-28T11:36:36.802Z,25.97
2019-02-28T11:39:05.188Z,27.17
2019-02-28T11:41:31.444Z,21.93
2019-02-28T11:43:57.833Z,22.93
2019-02-28T11:46:24.205Z,23.87
2019-02-28T11:48:51.081Z,21.70
2019-02-28T11:51:19.049Z,22.20
2019-02-28T11:53:45.409Z,22.40
2019-02-28T11:56:11.828Z,21.43
2019-02-28T11:58:38.071Z,22.33
2019-02-28T12:01:10.073Z,26.67
2019-02-28T12:03:35.474Z,27.20
2019-02-28T12:06:00.796Z,23.17
2019-02-28T12:08:27.404Z,25.37
2019-02-28T12:10:53.761Z,25.33
2019-02-28T12:13:20.643Z,25.23
2019-02-28T12:15:47.303Z,29.27
2019-02-28T12:18:13.639Z,27.03
2019-02-28T12:20:39.986Z,25.70
2019-02-28T12:23:06.333Z,28.23
2019-02-28T12:25:32.833Z,27.97
2019-02-28T12:28:02.224Z,28.47
2019-02-28T12:30:34.027Z,26.83
2019-02-28T12:33:00.528Z,25.47
2019-02-28T12:35:26.888Z,31.13
2019-02-28T12:37:53.917Z,24.80
2019-02-28T12:40:24.037Z,27.83
2019-02-28T12:42:50.402Z,26.83
2019-02-28T12:45:24.364Z,28.87
2019-02-28T12:47:50.881Z,26.10
2019-02-28T12:50:17.268Z,31.73
2019-02-28T12:52:43.523Z,26.63
2019-02-28T12:55:18.064Z,25.93
2019-02-28T12:57:44.358Z,27.43
2019-02-28T13:00:13.716Z,27.50
2019-02-28T13:02:43.499Z,25.63
2019-02-28T13:05:14.821Z,30.93
2019-02-28T13:07:38.668Z,27.93
2019-02-28T13:10:14.596Z,28.53
2019-02-28T13:12:44.239Z,28.03
2019-02-28T13:15:13.012Z,29.50
2019-02-28T13:17:40.239Z,28.20
2019-02-28T13:20:22.608Z,31.57
2019-02-28T13:22:49.096Z,30.90
2019-02-28T13:25:15.453Z,31.30
2019-02-28T13:27:45.300Z,28.07
2019-02-28T13:30:13.422Z,30.87
2019-02-28T13:32:39.789Z,25.13
2019-02-28T13:35:12.645Z,33.13
2019-02-28T13:37:40.963Z,31.50
2019-02-28T13:40:09.985Z,26.07
2019-02-28T13:42:40.501Z,29.63
2019-02-28T13:45:13.239Z,27.37
2019-02-28T13:47:35.808Z,29.60
2019-02-28T13:50:05.426Z,31.07
2019-02-28T13:52:31.869Z,27.77
2019-02-28T13:54:58.232Z,28.70
2019-02-28T13:57:24.484Z,29.63
2019-02-28T13:59:50.783Z,29.47
2019-02-28T14:02:17.062Z,30.43
2019-02-28T14:04:43.328Z,26.67
2019-02-28T14:07:09.589Z,25.40
2019-02-28T14:09:35.991Z,25.53
2019-02-28T14:12:02.276Z,28.37
2019-02-28T14:14:28.728Z,19.27
2019-02-28T14:16:54.995Z,22.80
2019-02-28T14:19:21.525Z,18.07
2019-02-28T14:21:47.784Z,20.50
2019-02-28T14:24:14.162Z,15.70
2019-02-28T14:26:43.070Z,16.13
2019-02-28T14:29:10.717Z,15.23
2019-02-28T14:31:36.971Z,18.10
2019-02-28T14:34:03.449Z,17.40
2019-02-28T14:36:29.804Z,21.23
2019-02-28T14:38:56.184Z,15.90
2019-02-28T14:41:24.744Z,25.87
2019-02-28T14:43:52.887Z,20.70
2019-02-28T14:46:19.222Z,17.27
2019-02-28T14:48:45.464Z,16.93
2019-02-28T14:51:11.845Z,17.77
2019-02-28T14:53:38.085Z,15.93
2019-02-28T14:56:07.185Z,20.13
2019-02-28T14:58:32.520Z,16.70
2019-02-28T15:00:58.993Z,14.13
2019-02-28T15:03:25.353Z,16.43
2019-02-28T15:05:52.426Z,18.53
2019-02-28T15:08:19.719Z,17.37
2019-02-28T15:10:45.976Z,17.47
2019-02-28T15:13:12.557Z,14.13
2019-02-28T15:15:38.808Z,13.67
2019-02-28T15:18:05.265Z,14.80
2019-02-28T15:20:32.962Z,18.03
2019-02-28T15:22:59.847Z,16.40
2019-02-28T15:25:27.997Z,13.70
2019-02-28T15:27:54.355Z,14.63
2019-02-28T15:30:33.600Z,14.00
2019-02-28T15:32:59.121Z,14.07
2019-02-28T15:35:25.575Z,13.53
2019-02-28T15:37:51.956Z,16.00
2019-02-28T15:40:28.176Z,13.57
2019-02-28T15:42:54.529Z,15.53
2019-02-28T15:45:20.921Z,16.33
2019-02-28T15:47:47.376Z,15.70
2019-02-28T15:50:16.406Z,15.63
2019-02-28T15:52:43.512Z,17.27
2019-02-28T15:55:12.490Z,14.47
2019-02-28T15:57:38.967Z,16.50
2019-02-28T16:00:09.019Z,13.97
2019-02-28T16:02:35.377Z,18.90
2019-02-28T16:05:05.586Z,16.53
2019-02-28T16:07:33.368Z,18.37
2019-02-28T16:09:58.130Z,12.33
2019-02-28T16:12:24.375Z,14.70
2019-02-28T16:14:50.715Z,16.20
2019-02-28T16:17:17.101Z,17.17
2019-02-28T16:19:43.448Z,23.60
2019-02-28T16:22:09.704Z,16.87
2019-02-28T16:24:36.763Z,16.20
2019-02-28T16:27:04.344Z,15.53
2019-02-28T16:29:30.674Z,15.30
2019-02-28T16:31:57.841Z,20.43
2019-02-28T16:34:24.129Z,18.07
2019-02-28T16:36:50.379Z,22.77
2019-02-28T16:39:17.005Z,22.17
2019-02-28T16:41:44.519Z,31.97
2019-02-28T16:44:10.803Z,19.57
2019-02-28T16:46:37.088Z,19.67
2019-02-28T16:49:03.435Z,17.40
2019-02-28T16:51:30.265Z,16.33
2019-02-28T16:53:56.676Z,19.63
2019-02-28T16:56:22.967Z,19.77
2019-02-28T16:58:49.356Z,16.87
2019-02-28T17:01:17.531Z,18.10
2019-02-28T17:03:43.807Z,19.93
2019-02-28T17:06:10.084Z,17.10
2019-02-28T17:08:38.265Z,14.80
2019-02-28T17:11:04.732Z,17.30
2019-02-28T17:13:35.578Z,17.50
2019-02-28T17:16:05.863Z,17.67
2019-02-28T17:18:39.673Z,20.93
2019-02-28T17:21:06.019Z,21.33
2019-02-28T17:23:33.714Z,18.47
2019-02-28T17:26:00.592Z,17.80
2019-02-28T17:28:31.503Z,17.83
2019-02-28T17:31:16.732Z,16.40
2019-02-28T17:33:46.805Z,22.87
2019-02-28T17:36:12.417Z,19.23
2019-02-28T17:38:39.091Z,23.77
2019-02-28T17:41:05.703Z,26.13
2019-02-28T17:43:35.458Z,15.20
2019-02-28T17:46:01.716Z,19.00
2019-02-28T17:48:31.780Z,18.27
2019-02-28T17:51:01.857Z,19.00
2019-02-28T17:53:45.693Z,20.77
2019-02-28T17:56:31.143Z,18.10
2019-02-28T17:59:36.020Z,20.70
2019-02-28T18:02:27.142Z,22.27
2019-02-28T18:05:29.846Z,17.67
2019-02-28T18:08:13.454Z,22.47
2019-02-28T18:10:59.180Z,24.70
2019-02-28T18:13:30.127Z,17.63
2019-02-28T18:16:03.224Z,23.53
2019-02-28T18:18:33.309Z,20.10
2019-02-28T18:21:23.140Z,19.73
2019-02-28T18:24:05.230Z,23.07
2019-02-28T18:26:44.147Z,20.50
2019-02-28T18:29:38.904Z,17.60
2019-02-28T18:32:05.297Z,22.07
2019-02-28T18:34:32.198Z,25.73
2019-02-28T18:36:58.557Z,21.10
2019-02-28T18:39:25.483Z,18.13
2019-02-28T18:41:51.957Z,24.77
2019-02-28T18:44:18.334Z,22.30
2019-02-28T18:46:44.583Z,22.67
2019-02-28T18:49:10.873Z,20.10
2019-02-28T18:51:37.327Z,25.40
2019-02-28T18:54:03.837Z,24.90
2019-02-28T18:56:30.126Z,27.60
2019-02-28T18:58:56.487Z,27.23
2019-02-28T19:01:22.978Z,22.43
2019-02-28T19:03:49.641Z,26.43
2019-02-28T19:06:16.007Z,20.50
2019-02-28T19:08:42.452Z,23.37
2019-02-28T19:11:08.939Z,17.50
2019-02-28T19:13:35.304Z,20.97
2019-02-28T19:16:01.789Z,20.57
2019-02-28T19:18:28.179Z,18.73
2019-02-28T19:20:55.715Z,24.07
2019-02-28T19:23:22.230Z,21.87
2019-02-28T19:25:48.481Z,23.70
2019-02-28T19:28:14.746Z,18.10
2019-02-28T19:30:41.137Z,20.23
2019-02-28T19:33:07.492Z,18.87
2019-02-28T19:35:33.844Z,20.57
2019-02-28T19:38:00.128Z,25.47
2019-02-28T19:40:26.409Z,19.93
2019-02-28T19:42:52.675Z,23.57
2019-02-28T19:45:37.300Z,20.00
2019-02-28T19:48:03.733Z,22.30
2019-02-28T19:50:32.518Z,21.57
2019-02-28T19:52:59.076Z,21.13
2019-02-28T19:55:25.569Z,21.93
2019-02-28T19:57:53.017Z,39.93
2019-02-28T20:00:19.485Z,22.33
2019-02-28T20:02:47.060Z,27.60
2019-02-28T20:05:15.304Z,21.83
2019-02-28T20:10:30.920Z,26.97
2019-02-28T20:12:57.267Z,28.03
2019-02-28T20:15:25.799Z,23.20
2019-02-28T20:17:52.167Z,27.17
2019-02-28T20:20:21.837Z,55.20
2019-02-28T20:22:48.430Z,51.00
2019-02-28T20:25:15.307Z,39.90
2019-02-28T20:27:41.994Z,23.53
2019-02-28T20:30:12.228Z,34.73
2019-02-28T20:32:39.431Z,44.83
2019-02-28T20:35:06.937Z,32.73
2019-02-28T20:37:33.391Z,39.10
2019-02-28T20:39:59.676Z,28.90
2019-02-28T20:42:26.030Z,26.10
2019-02-28T20:44:52.287Z,24.67
2019-02-28T20:47:18.578Z,22.50
2019-02-28T20:49:44.839Z,27.03
2019-02-28T20:52:11.231Z,28.93
2019-02-28T20:54:37.499Z,24.33
2019-02-28T20:57:03.943Z,22.80
2019-02-28T20:59:30.245Z,27.03
2019-02-28T21:01:56.513Z,25.25
2019-02-28T21:04:22.791Z,25.33
2019-02-28T21:06:49.064Z,27.33
2019-02-28T21:09:16.858Z,23.38
2019-02-28T21:11:43.228Z,29.37
2019-02-28T21:14:09.489Z,27.07
2019-02-28T21:16:35.763Z,29.50
2019-02-28T21:19:02.029Z,40.93
2019-02-28T21:21:28.307Z,28.33
2019-02-28T21:23:54.660Z,29.27
2019-02-28T21:26:20.940Z,26.50
2019-02-28T21:28:47.236Z,30.95
2019-02-28T21:31:13.489Z,29.90
2019-02-28T21:33:39.756Z,31.80
2019-02-28T21:36:06.253Z,31.30
2019-02-28T21:38:32.607Z,32.27
2019-02-28T21:40:59.187Z,27.45
2019-02-28T21:43:25.467Z,29.75
2019-02-28T21:45:51.741Z,30.68
2019-02-28T21:48:18.044Z,29.07
2019-02-28T21:50:44.427Z,29.23
2019-02-28T21:53:10.708Z,29.25
2019-02-28T21:55:37.106Z,27.98
2019-02-28T21:58:03.567Z,27.20
2019-02-28T22:00:30.828Z,26.97
2019-02-28T22:02:57.147Z,27.20
2019-02-28T22:05:23.524Z,24.55
2019-02-28T22:07:49.787Z,28.90
2019-02-28T22:10:16.274Z,25.12
2019-02-28T22:12:44.382Z,24.13
2019-02-28T22:15:13.136Z,27.17
2019-02-28T22:17:39.624Z,25.50
2019-02-28T22:20:10.760Z,24.95
2019-02-28T22:22:37.112Z,26.70
2019-02-28T22:25:05.589Z,21.35
2019-02-28T22:27:31.872Z,20.02
2019-02-28T22:30:00.045Z,23.70
2019-02-28T22:32:28.248Z,22.02
2019-02-28T22:34:56.423Z,22.75
2019-02-28T22:37:23.268Z,23.02
2019-02-28T22:39:49.812Z,22.35
2019-02-28T22:42:22.041Z,21.93
2019-02-28T22:44:45.080Z,25.52
2019-02-28T22:47:11.331Z,21.60
2019-02-28T22:49:37.620Z,27.00
2019-02-28T22:52:03.886Z,20.37
2019-02-28T22:54:30.136Z,26.95
2019-02-28T22:56:56.427Z,22.70
2019-02-28T22:59:22.687Z,29.85
2019-02-28T23:01:49.992Z,27.62
2019-02-28T23:04:16.377Z,31.00
2019-02-28T23:06:42.760Z,26.45
2019-02-28T23:09:09.517Z,26.52
2019-02-28T23:11:35.908Z,25.75
2019-02-28T23:14:02.460Z,29.85
2019-02-28T23:16:28.744Z,27.17
2019-02-28T23:18:55.952Z,30.17
2019-02-28T23:21:22.278Z,30.08
2019-02-28T23:23:48.540Z,28.38
2019-02-28T23:26:14.803Z,34.13
2019-02-28T23:28:44.790Z,30.92
2019-02-28T23:31:29.973Z,27.13
2019-02-28T23:34:03.027Z,29.70
2019-02-28T23:36:29.405Z,31.30
2019-02-28T23:38:56.493Z,35.30
2019-02-28T23:41:22.885Z,33.55
2019-02-28T23:43:49.160Z,32.20
2019-02-28T23:46:15.416Z,31.85
2019-02-28T23:48:42.437Z,32.70
2019-02-28T23:51:09.580Z,34.13
2019-02-28T23:53:35.943Z,30.75
2019-02-28T23:56:02.335Z,29.65
2019-02-28T23:58:28.626Z,33.92
